sensor_id;sensor_type;location;lat;lon;timestamp;P1;durP1;ratioP1;P2;durP2;ratioP2
13067;SDS011;6600;51.362;6.686;2022-10-16T00:00:31;1.50;;;1.40;;
13067;SDS011;6600;51.362;6.686;2022-10-16T00:02:56;1.50;;;1.40;;
13067;SDS011;6600;51.362;6.686;2022-10-16T00:05:22;3.30;;;1.43;;
13067;SDS011;6600;51.362;6.686;2022-10-16T00:07:47;1.60;;;1.50;;
13067;SDS011;6600;51.362;6.686;2022-10-16T00:10:12;1.77;;;1.33;;
13067;SDS011;6600;51.362;6.686;2022-10-16T00:12:38;2.03;;;1.53;;
13067;SDS011;6600;51.362;6.686;2022-10-16T00:15:03;1.47;;;1.20;;
13067;SDS011;6600;51.362;6.686;2022-10-16T00:17:29;1.20;;;1.10;;
13067;SDS011;6600;51.362;6.686;2022-10-16T00:19:55;1.43;;;1.33;;
13067;SDS011;6600;51.362;6.686;2022-10-16T00:22:20;1.40;;;1.20;;
13067;SDS011;6600;51.362;6.686;2022-10-16T00:24:45;1.97;;;1.20;;
13067;SDS011;6600;51.362;6.686;2022-10-16T00:27:11;1.30;;;1.20;;
13067;SDS011;6600;51.362;6.686;2022-10-16T00:29:36;1.83;;;1.70;;
13067;SDS011;6600;51.362;6.686;2022-10-16T00:32:01;1.87;;;1.43;;
13067;SDS011;6600;51.362;6.686;2022-10-16T00:34:27;5.93;;;1.13;;
13067;SDS011;6600;51.362;6.686;2022-10-16T00:36:52;1.60;;;1.03;;
13067;SDS011;6600;51.362;6.686;2022-10-16T00:39:17;1.20;;;1.10;;
13067;SDS011;6600;51.362;6.686;2022-10-16T00:41:42;1.50;;;0.97;;
13067;SDS011;6600;51.362;6.686;2022-10-16T00:47:12;2.20;;;1.10;;
13067;SDS011;6600;51.362;6.686;2022-10-16T00:49:42;0.83;;;0.70;;
13067;SDS011;6600;51.362;6.686;2022-10-16T00:52:08;1.23;;;1.00;;
13067;SDS011;6600;51.362;6.686;2022-10-16T00:54:35;0.83;;;0.80;;
13067;SDS011;6600;51.362;6.686;2022-10-16T00:57:02;0.67;;;0.67;;
13067;SDS011;6600;51.362;6.686;2022-10-16T00:59:31;0.90;;;0.70;;
13067;SDS011;6600;51.362;6.686;2022-10-16T01:02:00;1.30;;;1.20;;
13067;SDS011;6600;51.362;6.686;2022-10-16T01:04:26;1.03;;;0.90;;
13067;SDS011;6600;51.362;6.686;2022-10-16T01:09:41;1.10;;;1.00;;
13067;SDS011;6600;51.362;6.686;2022-10-16T01:12:14;1.30;;;0.87;;
13067;SDS011;6600;51.362;6.686;2022-10-16T01:20:31;0.70;;;0.70;;
13067;SDS011;6600;51.362;6.686;2022-10-16T01:25:55;1.00;;;0.80;;
13067;SDS011;6600;51.362;6.686;2022-10-16T01:28:36;0.77;;;0.77;;
13067;SDS011;6600;51.362;6.686;2022-10-16T01:31:31;0.83;;;0.80;;
13067;SDS011;6600;51.362;6.686;2022-10-16T01:34:03;1.07;;;0.97;;
13067;SDS011;6600;51.362;6.686;2022-10-16T01:36:39;2.47;;;1.00;;
13067;SDS011;6600;51.362;6.686;2022-10-16T01:39:10;0.60;;;0.60;;
13067;SDS011;6600;51.362;6.686;2022-10-16T01:41:38;0.63;;;0.63;;
13067;SDS011;6600;51.362;6.686;2022-10-16T01:44:13;0.60;;;0.60;;
13067;SDS011;6600;51.362;6.686;2022-10-16T01:46:44;0.90;;;0.83;;
13067;SDS011;6600;51.362;6.686;2022-10-16T01:49:13;1.37;;;0.70;;
13067;SDS011;6600;51.362;6.686;2022-10-16T01:51:39;1.07;;;0.90;;
13067;SDS011;6600;51.362;6.686;2022-10-16T01:54:08;0.90;;;0.80;;
13067;SDS011;6600;51.362;6.686;2022-10-16T01:56:36;0.90;;;0.90;;
13067;SDS011;6600;51.362;6.686;2022-10-16T01:59:06;0.70;;;0.70;;
13067;SDS011;6600;51.362;6.686;2022-10-16T02:01:36;0.73;;;0.73;;
13067;SDS011;6600;51.362;6.686;2022-10-16T02:04:48;0.60;;;0.60;;
13067;SDS011;6600;51.362;6.686;2022-10-16T02:06:53;0.70;;;0.60;;
13067;SDS011;6600;51.362;6.686;2022-10-16T02:09:20;1.63;;;0.77;;
13067;SDS011;6600;51.362;6.686;2022-10-16T02:11:45;1.63;;;1.43;;
13067;SDS011;6600;51.362;6.686;2022-10-16T02:14:11;1.60;;;1.50;;
13067;SDS011;6600;51.362;6.686;2022-10-16T02:16:44;4.40;;;2.83;;
13067;SDS011;6600;51.362;6.686;2022-10-16T02:19:11;6.80;;;3.90;;
13067;SDS011;6600;51.362;6.686;2022-10-16T02:21:49;4.97;;;3.60;;
13067;SDS011;6600;51.362;6.686;2022-10-16T02:27:11;5.77;;;3.93;;
13067;SDS011;6600;51.362;6.686;2022-10-16T02:29:42;6.87;;;3.43;;
13067;SDS011;6600;51.362;6.686;2022-10-16T02:32:15;4.57;;;3.23;;
13067;SDS011;6600;51.362;6.686;2022-10-16T02:34:45;5.90;;;3.43;;
13067;SDS011;6600;51.362;6.686;2022-10-16T02:37:11;4.67;;;3.40;;
13067;SDS011;6600;51.362;6.686;2022-10-16T02:39:37;3.90;;;2.60;;
13067;SDS011;6600;51.362;6.686;2022-10-16T02:42:09;2.40;;;2.20;;
13067;SDS011;6600;51.362;6.686;2022-10-16T02:44:35;3.43;;;2.60;;
13067;SDS011;6600;51.362;6.686;2022-10-16T02:47:00;3.93;;;2.90;;
13067;SDS011;6600;51.362;6.686;2022-10-16T02:49:26;2.83;;;2.33;;
13067;SDS011;6600;51.362;6.686;2022-10-16T02:51:51;2.27;;;1.80;;
13067;SDS011;6600;51.362;6.686;2022-10-16T02:54:16;4.20;;;2.00;;
13067;SDS011;6600;51.362;6.686;2022-10-16T02:56:42;4.20;;;2.30;;
13067;SDS011;6600;51.362;6.686;2022-10-16T02:59:07;4.67;;;3.27;;
13067;SDS011;6600;51.362;6.686;2022-10-16T03:01:32;2.33;;;1.67;;
13067;SDS011;6600;51.362;6.686;2022-10-16T03:03:57;2.40;;;1.83;;
13067;SDS011;6600;51.362;6.686;2022-10-16T03:06:23;2.23;;;1.67;;
13067;SDS011;6600;51.362;6.686;2022-10-16T03:08:48;2.37;;;1.30;;
13067;SDS011;6600;51.362;6.686;2022-10-16T03:11:13;1.43;;;1.20;;
13067;SDS011;6600;51.362;6.686;2022-10-16T03:13:39;1.00;;;0.90;;
13067;SDS011;6600;51.362;6.686;2022-10-16T03:16:04;1.83;;;1.03;;
13067;SDS011;6600;51.362;6.686;2022-10-16T03:18:29;1.90;;;0.50;;
13067;SDS011;6600;51.362;6.686;2022-10-16T03:20:55;1.60;;;0.83;;
13067;SDS011;6600;51.362;6.686;2022-10-16T03:23:20;0.70;;;0.70;;
13067;SDS011;6600;51.362;6.686;2022-10-16T03:25:45;0.30;;;0.30;;
13067;SDS011;6600;51.362;6.686;2022-10-16T03:28:10;0.80;;;0.80;;
13067;SDS011;6600;51.362;6.686;2022-10-16T03:30:36;0.93;;;0.90;;
13067;SDS011;6600;51.362;6.686;2022-10-16T03:33:01;1.10;;;0.97;;
13067;SDS011;6600;51.362;6.686;2022-10-16T03:35:27;0.30;;;0.30;;
13067;SDS011;6600;51.362;6.686;2022-10-16T03:37:52;1.03;;;0.73;;
13067;SDS011;6600;51.362;6.686;2022-10-16T03:40:18;2.20;;;0.50;;
13067;SDS011;6600;51.362;6.686;2022-10-16T03:42:43;0.40;;;0.40;;
13067;SDS011;6600;51.362;6.686;2022-10-16T03:45:09;0.50;;;0.50;;
13067;SDS011;6600;51.362;6.686;2022-10-16T03:47:35;0.47;;;0.47;;
13067;SDS011;6600;51.362;6.686;2022-10-16T03:50:00;0.93;;;0.40;;
13067;SDS011;6600;51.362;6.686;2022-10-16T03:52:26;0.40;;;0.40;;
13067;SDS011;6600;51.362;6.686;2022-10-16T03:54:51;2.83;;;0.43;;
13067;SDS011;6600;51.362;6.686;2022-10-16T03:57:17;0.80;;;0.60;;
13067;SDS011;6600;51.362;6.686;2022-10-16T03:59:42;1.10;;;0.60;;
13067;SDS011;6600;51.362;6.686;2022-10-16T04:02:08;0.40;;;0.40;;
13067;SDS011;6600;51.362;6.686;2022-10-16T04:04:33;0.43;;;0.43;;
13067;SDS011;6600;51.362;6.686;2022-10-16T04:06:59;0.63;;;0.43;;
13067;SDS011;6600;51.362;6.686;2022-10-16T04:09:24;0.40;;;0.40;;
13067;SDS011;6600;51.362;6.686;2022-10-16T04:11:50;0.70;;;0.43;;
13067;SDS011;6600;51.362;6.686;2022-10-16T04:14:15;0.30;;;0.30;;
13067;SDS011;6600;51.362;6.686;2022-10-16T04:16:41;2.10;;;0.40;;
13067;SDS011;6600;51.362;6.686;2022-10-16T04:19:06;0.50;;;0.50;;
13067;SDS011;6600;51.362;6.686;2022-10-16T04:21:31;0.70;;;0.70;;
13067;SDS011;6600;51.362;6.686;2022-10-16T04:23:56;0.60;;;0.57;;
13067;SDS011;6600;51.362;6.686;2022-10-16T04:26:22;0.43;;;0.43;;
13067;SDS011;6600;51.362;6.686;2022-10-16T04:28:47;0.80;;;0.50;;
13067;SDS011;6600;51.362;6.686;2022-10-16T04:31:12;0.50;;;0.50;;
13067;SDS011;6600;51.362;6.686;2022-10-16T04:33:38;0.40;;;0.40;;
13067;SDS011;6600;51.362;6.686;2022-10-16T04:36:03;1.20;;;0.63;;
13067;SDS011;6600;51.362;6.686;2022-10-16T04:38:29;0.63;;;0.63;;
13067;SDS011;6600;51.362;6.686;2022-10-16T04:40:54;2.07;;;0.60;;
13067;SDS011;6600;51.362;6.686;2022-10-16T04:43:20;0.60;;;0.60;;
13067;SDS011;6600;51.362;6.686;2022-10-16T04:45:46;1.33;;;0.50;;
13067;SDS011;6600;51.362;6.686;2022-10-16T04:48:12;0.93;;;0.53;;
13067;SDS011;6600;51.362;6.686;2022-10-16T04:50:37;1.00;;;1.00;;
13067;SDS011;6600;51.362;6.686;2022-10-16T04:53:02;0.80;;;0.80;;
13067;SDS011;6600;51.362;6.686;2022-10-16T04:55:28;0.30;;;0.30;;
13067;SDS011;6600;51.362;6.686;2022-10-16T04:57:53;0.90;;;0.80;;
13067;SDS011;6600;51.362;6.686;2022-10-16T05:00:19;1.70;;;0.70;;
13067;SDS011;6600;51.362;6.686;2022-10-16T05:02:44;0.60;;;0.60;;
13067;SDS011;6600;51.362;6.686;2022-10-16T05:05:09;0.60;;;0.60;;
13067;SDS011;6600;51.362;6.686;2022-10-16T05:07:35;0.60;;;0.60;;
13067;SDS011;6600;51.362;6.686;2022-10-16T05:10:00;0.80;;;0.80;;
13067;SDS011;6600;51.362;6.686;2022-10-16T05:12:25;0.67;;;0.67;;
13067;SDS011;6600;51.362;6.686;2022-10-16T05:14:51;0.70;;;0.70;;
13067;SDS011;6600;51.362;6.686;2022-10-16T05:17:16;0.77;;;0.77;;
13067;SDS011;6600;51.362;6.686;2022-10-16T05:19:41;0.83;;;0.83;;
13067;SDS011;6600;51.362;6.686;2022-10-16T05:22:07;0.87;;;0.70;;
13067;SDS011;6600;51.362;6.686;2022-10-16T05:24:32;0.67;;;0.57;;
13067;SDS011;6600;51.362;6.686;2022-10-16T05:26:57;0.80;;;0.80;;
13067;SDS011;6600;51.362;6.686;2022-10-16T05:29:23;0.50;;;0.50;;
13067;SDS011;6600;51.362;6.686;2022-10-16T05:31:52;1.20;;;0.80;;
13067;SDS011;6600;51.362;6.686;2022-10-16T05:34:18;0.67;;;0.67;;
13067;SDS011;6600;51.362;6.686;2022-10-16T05:36:43;1.17;;;0.87;;
13067;SDS011;6600;51.362;6.686;2022-10-16T05:39:10;0.40;;;0.40;;
13067;SDS011;6600;51.362;6.686;2022-10-16T05:41:35;0.60;;;0.60;;
13067;SDS011;6600;51.362;6.686;2022-10-16T05:44:03;0.87;;;0.87;;
13067;SDS011;6600;51.362;6.686;2022-10-16T05:46:30;0.83;;;0.80;;
13067;SDS011;6600;51.362;6.686;2022-10-16T05:48:55;1.50;;;0.60;;
13067;SDS011;6600;51.362;6.686;2022-10-16T05:51:20;1.13;;;1.03;;
13067;SDS011;6600;51.362;6.686;2022-10-16T05:53:46;1.10;;;0.83;;
13067;SDS011;6600;51.362;6.686;2022-10-16T05:56:11;0.80;;;0.70;;
13067;SDS011;6600;51.362;6.686;2022-10-16T05:58:39;0.50;;;0.50;;
13067;SDS011;6600;51.362;6.686;2022-10-16T06:01:12;0.50;;;0.50;;
13067;SDS011;6600;51.362;6.686;2022-10-16T06:03:40;0.73;;;0.67;;
13067;SDS011;6600;51.362;6.686;2022-10-16T06:06:12;0.60;;;0.60;;
13067;SDS011;6600;51.362;6.686;2022-10-16T06:08:39;0.60;;;0.60;;
13067;SDS011;6600;51.362;6.686;2022-10-16T06:11:07;1.27;;;1.17;;
13067;SDS011;6600;51.362;6.686;2022-10-16T06:13:34;0.70;;;0.70;;
13067;SDS011;6600;51.362;6.686;2022-10-16T06:16:00;1.63;;;0.50;;
13067;SDS011;6600;51.362;6.686;2022-10-16T06:18:26;0.70;;;0.70;;
13067;SDS011;6600;51.362;6.686;2022-10-16T06:20:53;0.80;;;0.70;;
13067;SDS011;6600;51.362;6.686;2022-10-16T06:23:18;1.33;;;1.00;;
13067;SDS011;6600;51.362;6.686;2022-10-16T06:25:44;1.27;;;1.17;;
13067;SDS011;6600;51.362;6.686;2022-10-16T06:28:09;0.77;;;0.77;;
13067;SDS011;6600;51.362;6.686;2022-10-16T06:30:34;0.83;;;0.83;;
13067;SDS011;6600;51.362;6.686;2022-10-16T06:33:00;0.77;;;0.77;;
13067;SDS011;6600;51.362;6.686;2022-10-16T06:35:25;0.80;;;0.80;;
13067;SDS011;6600;51.362;6.686;2022-10-16T06:37:52;2.27;;;0.70;;
13067;SDS011;6600;51.362;6.686;2022-10-16T06:40:18;0.67;;;0.67;;
13067;SDS011;6600;51.362;6.686;2022-10-16T06:42:43;2.73;;;0.87;;
13067;SDS011;6600;51.362;6.686;2022-10-16T06:45:09;1.40;;;0.73;;
13067;SDS011;6600;51.362;6.686;2022-10-16T06:47:34;1.00;;;0.90;;
13067;SDS011;6600;51.362;6.686;2022-10-16T06:50:00;0.80;;;0.80;;
13067;SDS011;6600;51.362;6.686;2022-10-16T06:52:28;0.40;;;0.40;;
13067;SDS011;6600;51.362;6.686;2022-10-16T06:54:53;0.87;;;0.87;;
13067;SDS011;6600;51.362;6.686;2022-10-16T06:57:18;0.70;;;0.70;;
13067;SDS011;6600;51.362;6.686;2022-10-16T06:59:44;0.60;;;0.60;;
13067;SDS011;6600;51.362;6.686;2022-10-16T07:02:10;0.63;;;0.63;;
13067;SDS011;6600;51.362;6.686;2022-10-16T07:04:36;1.97;;;1.00;;
13067;SDS011;6600;51.362;6.686;2022-10-16T07:07:01;0.50;;;0.50;;
13067;SDS011;6600;51.362;6.686;2022-10-16T07:09:27;0.67;;;0.63;;
13067;SDS011;6600;51.362;6.686;2022-10-16T07:11:52;0.83;;;0.80;;
13067;SDS011;6600;51.362;6.686;2022-10-16T07:14:19;1.30;;;1.20;;
13067;SDS011;6600;51.362;6.686;2022-10-16T07:16:46;0.80;;;0.53;;
13067;SDS011;6600;51.362;6.686;2022-10-16T07:19:12;0.80;;;0.80;;
13067;SDS011;6600;51.362;6.686;2022-10-16T07:21:40;3.23;;;1.17;;
13067;SDS011;6600;51.362;6.686;2022-10-16T07:24:06;1.83;;;0.87;;
13067;SDS011;6600;51.362;6.686;2022-10-16T07:26:36;1.57;;;1.23;;
13067;SDS011;6600;51.362;6.686;2022-10-16T07:29:04;0.60;;;0.60;;
13067;SDS011;6600;51.362;6.686;2022-10-16T07:31:30;0.77;;;0.77;;
13067;SDS011;6600;51.362;6.686;2022-10-16T07:33:57;2.63;;;0.90;;
13067;SDS011;6600;51.362;6.686;2022-10-16T07:36:24;0.80;;;0.80;;
13067;SDS011;6600;51.362;6.686;2022-10-16T07:38:49;0.80;;;0.80;;
13067;SDS011;6600;51.362;6.686;2022-10-16T07:41:16;1.37;;;0.90;;
13067;SDS011;6600;51.362;6.686;2022-10-16T07:43:46;0.97;;;0.90;;
13067;SDS011;6600;51.362;6.686;2022-10-16T07:46:13;1.10;;;1.10;;
13067;SDS011;6600;51.362;6.686;2022-10-16T07:48:39;1.47;;;0.73;;
13067;SDS011;6600;51.362;6.686;2022-10-16T07:51:05;0.80;;;0.77;;
13067;SDS011;6600;51.362;6.686;2022-10-16T07:53:32;1.27;;;1.07;;
13067;SDS011;6600;51.362;6.686;2022-10-16T07:55:59;1.30;;;0.93;;
13067;SDS011;6600;51.362;6.686;2022-10-16T07:58:29;0.90;;;0.80;;
13067;SDS011;6600;51.362;6.686;2022-10-16T08:00:55;1.00;;;1.00;;
13067;SDS011;6600;51.362;6.686;2022-10-16T08:03:21;0.90;;;0.90;;
13067;SDS011;6600;51.362;6.686;2022-10-16T08:05:47;1.00;;;0.83;;
13067;SDS011;6600;51.362;6.686;2022-10-16T08:08:13;0.80;;;0.80;;
13067;SDS011;6600;51.362;6.686;2022-10-16T08:10:39;2.03;;;0.87;;
13067;SDS011;6600;51.362;6.686;2022-10-16T08:13:04;0.60;;;0.60;;
13067;SDS011;6600;51.362;6.686;2022-10-16T08:15:30;0.83;;;0.80;;
13067;SDS011;6600;51.362;6.686;2022-10-16T08:17:56;0.40;;;0.40;;
13067;SDS011;6600;51.362;6.686;2022-10-16T08:20:26;1.03;;;0.90;;
13067;SDS011;6600;51.362;6.686;2022-10-16T08:22:52;0.63;;;0.63;;
13067;SDS011;6600;51.362;6.686;2022-10-16T08:25:18;0.70;;;0.70;;
13067;SDS011;6600;51.362;6.686;2022-10-16T08:27:44;1.17;;;0.60;;
13067;SDS011;6600;51.362;6.686;2022-10-16T08:30:10;0.90;;;0.80;;
13067;SDS011;6600;51.362;6.686;2022-10-16T08:32:35;1.50;;;0.60;;
13067;SDS011;6600;51.362;6.686;2022-10-16T08:35:00;0.60;;;0.60;;
13067;SDS011;6600;51.362;6.686;2022-10-16T08:37:29;0.60;;;0.60;;
13067;SDS011;6600;51.362;6.686;2022-10-16T08:39:55;0.70;;;0.70;;
13067;SDS011;6600;51.362;6.686;2022-10-16T08:48:26;2.13;;;0.67;;
13067;SDS011;6600;51.362;6.686;2022-10-16T08:50:55;0.67;;;0.67;;
13067;SDS011;6600;51.362;6.686;2022-10-16T08:53:56;0.50;;;0.50;;
13067;SDS011;6600;51.362;6.686;2022-10-16T08:56:18;0.60;;;0.60;;
13067;SDS011;6600;51.362;6.686;2022-10-16T08:58:45;0.87;;;0.50;;
13067;SDS011;6600;51.362;6.686;2022-10-16T09:01:13;0.50;;;0.50;;
13067;SDS011;6600;51.362;6.686;2022-10-16T09:19:46;1.03;;;0.27;;
13067;SDS011;6600;51.362;6.686;2022-10-16T09:22:18;1.37;;;0.53;;
13067;SDS011;6600;51.362;6.686;2022-10-16T09:24:51;0.23;;;0.23;;
13067;SDS011;6600;51.362;6.686;2022-10-16T09:27:16;0.50;;;0.50;;
13067;SDS011;6600;51.362;6.686;2022-10-16T09:29:42;0.40;;;0.40;;
13067;SDS011;6600;51.362;6.686;2022-10-16T09:32:10;0.37;;;0.37;;
13067;SDS011;6600;51.362;6.686;2022-10-16T09:34:40;0.30;;;0.30;;
13067;SDS011;6600;51.362;6.686;2022-10-16T09:37:12;0.70;;;0.40;;
13067;SDS011;6600;51.362;6.686;2022-10-16T09:39:46;0.40;;;0.40;;
13067;SDS011;6600;51.362;6.686;2022-10-16T09:42:14;0.40;;;0.40;;
13067;SDS011;6600;51.362;6.686;2022-10-16T09:44:41;0.63;;;0.40;;
13067;SDS011;6600;51.362;6.686;2022-10-16T09:50:01;0.37;;;0.37;;
13067;SDS011;6600;51.362;6.686;2022-10-16T09:52:43;0.30;;;0.30;;
13067;SDS011;6600;51.362;6.686;2022-10-16T09:55:13;0.20;;;0.20;;
13067;SDS011;6600;51.362;6.686;2022-10-16T09:57:52;1.03;;;0.30;;
13067;SDS011;6600;51.362;6.686;2022-10-16T10:00:19;0.20;;;0.20;;
13067;SDS011;6600;51.362;6.686;2022-10-16T10:02:45;0.20;;;0.20;;
13067;SDS011;6600;51.362;6.686;2022-10-16T10:05:27;0.53;;;0.20;;
13067;SDS011;6600;51.362;6.686;2022-10-16T10:07:55;0.10;;;0.10;;
13067;SDS011;6600;51.362;6.686;2022-10-16T10:10:26;1.67;;;0.57;;
13067;SDS011;6600;51.362;6.686;2022-10-16T10:12:53;0.63;;;0.40;;
13067;SDS011;6600;51.362;6.686;2022-10-16T10:15:20;0.10;;;0.10;;
13067;SDS011;6600;51.362;6.686;2022-10-16T10:22:51;0.50;;;0.50;;
13067;SDS011;6600;51.362;6.686;2022-10-16T10:28:07;0.40;;;0.30;;
13067;SDS011;6600;51.362;6.686;2022-10-16T10:33:25;0.30;;;0.30;;
13067;SDS011;6600;51.362;6.686;2022-10-16T10:36:13;0.30;;;0.30;;
13067;SDS011;6600;51.362;6.686;2022-10-16T10:57:29;0.70;;;0.30;;
13067;SDS011;6600;51.362;6.686;2022-10-16T11:05:56;1.07;;;0.30;;
13067;SDS011;6600;51.362;6.686;2022-10-16T11:08:28;0.30;;;0.30;;
13067;SDS011;6600;51.362;6.686;2022-10-16T11:11:02;0.30;;;0.23;;
13067;SDS011;6600;51.362;6.686;2022-10-16T11:16:13;0.17;;;0.17;;
13067;SDS011;6600;51.362;6.686;2022-10-16T11:21:14;1.17;;;0.40;;
13067;SDS011;6600;51.362;6.686;2022-10-16T11:23:50;0.63;;;0.43;;
13067;SDS011;6600;51.362;6.686;2022-10-16T11:26:24;1.20;;;0.40;;
13067;SDS011;6600;51.362;6.686;2022-10-16T11:28:54;0.63;;;0.47;;
13067;SDS011;6600;51.362;6.686;2022-10-16T11:31:26;0.93;;;0.40;;
13067;SDS011;6600;51.362;6.686;2022-10-16T11:34:17;0.57;;;0.40;;
13067;SDS011;6600;51.362;6.686;2022-10-16T11:39:28;0.37;;;0.20;;
13067;SDS011;6600;51.362;6.686;2022-10-16T11:41:56;0.30;;;0.30;;
13067;SDS011;6600;51.362;6.686;2022-10-16T11:47:45;0.40;;;0.30;;
13067;SDS011;6600;51.362;6.686;2022-10-16T11:50:23;0.20;;;0.20;;
13067;SDS011;6600;51.362;6.686;2022-10-16T11:55:26;0.40;;;0.40;;
13067;SDS011;6600;51.362;6.686;2022-10-16T11:57:59;0.30;;;0.30;;
13067;SDS011;6600;51.362;6.686;2022-10-16T12:00:31;0.37;;;0.37;;
13067;SDS011;6600;51.362;6.686;2022-10-16T12:06:34;0.20;;;0.20;;
13067;SDS011;6600;51.362;6.686;2022-10-16T12:08:44;0.33;;;0.30;;
13067;SDS011;6600;51.362;6.686;2022-10-16T12:14:18;0.50;;;0.40;;
13067;SDS011;6600;51.362;6.686;2022-10-16T12:17:01;0.37;;;0.30;;
13067;SDS011;6600;51.362;6.686;2022-10-16T12:19:31;0.47;;;0.23;;
13067;SDS011;6600;51.362;6.686;2022-10-16T12:21:58;0.10;;;0.10;;
13067;SDS011;6600;51.362;6.686;2022-10-16T12:24:37;0.33;;;0.33;;
13067;SDS011;6600;51.362;6.686;2022-10-16T12:27:22;0.30;;;0.30;;
13067;SDS011;6600;51.362;6.686;2022-10-16T12:30:00;1.30;;;0.30;;
13067;SDS011;6600;51.362;6.686;2022-10-16T12:34:57;0.40;;;0.40;;
13067;SDS011;6600;51.362;6.686;2022-10-16T12:37:25;0.50;;;0.50;;
13067;SDS011;6600;51.362;6.686;2022-10-16T12:39:55;0.53;;;0.37;;
13067;SDS011;6600;51.362;6.686;2022-10-16T12:44:50;0.30;;;0.30;;
13067;SDS011;6600;51.362;6.686;2022-10-16T12:47:24;0.20;;;0.20;;
13067;SDS011;6600;51.362;6.686;2022-10-16T12:50:02;0.47;;;0.30;;
13067;SDS011;6600;51.362;6.686;2022-10-16T12:52:29;2.03;;;0.40;;
13067;SDS011;6600;51.362;6.686;2022-10-16T12:55:01;0.20;;;0.20;;
13067;SDS011;6600;51.362;6.686;2022-10-16T12:57:35;0.70;;;0.47;;
13067;SDS011;6600;51.362;6.686;2022-10-16T13:03:34;0.27;;;0.27;;
13067;SDS011;6600;51.362;6.686;2022-10-16T13:11:27;0.20;;;0.20;;
13067;SDS011;6600;51.362;6.686;2022-10-16T13:19:59;1.80;;;0.40;;
13067;SDS011;6600;51.362;6.686;2022-10-16T13:27:54;1.80;;;0.50;;
13067;SDS011;6600;51.362;6.686;2022-10-16T13:30:23;0.40;;;0.40;;
13067;SDS011;6600;51.362;6.686;2022-10-16T13:32:53;0.40;;;0.40;;
13067;SDS011;6600;51.362;6.686;2022-10-16T13:35:31;0.80;;;0.60;;
13067;SDS011;6600;51.362;6.686;2022-10-16T13:38:12;1.50;;;0.40;;
13067;SDS011;6600;51.362;6.686;2022-10-16T13:43:21;0.20;;;0.20;;
13067;SDS011;6600;51.362;6.686;2022-10-16T13:45:53;1.20;;;0.47;;
13067;SDS011;6600;51.362;6.686;2022-10-16T13:48:20;0.60;;;0.30;;
13067;SDS011;6600;51.362;6.686;2022-10-16T13:50:45;0.83;;;0.40;;
13067;SDS011;6600;51.362;6.686;2022-10-16T13:53:13;0.53;;;0.27;;
13067;SDS011;6600;51.362;6.686;2022-10-16T13:55:40;0.50;;;0.30;;
13067;SDS011;6600;51.362;6.686;2022-10-16T13:58:07;0.20;;;0.20;;
13067;SDS011;6600;51.362;6.686;2022-10-16T14:00:36;0.20;;;0.20;;
13067;SDS011;6600;51.362;6.686;2022-10-16T14:03:02;0.40;;;0.30;;
13067;SDS011;6600;51.362;6.686;2022-10-16T14:05:31;0.10;;;0.10;;
13067;SDS011;6600;51.362;6.686;2022-10-16T14:07:57;0.10;;;0.10;;
13067;SDS011;6600;51.362;6.686;2022-10-16T14:10:31;0.30;;;0.30;;
13067;SDS011;6600;51.362;6.686;2022-10-16T14:12:59;0.20;;;0.20;;
13067;SDS011;6600;51.362;6.686;2022-10-16T14:15:26;0.30;;;0.30;;
13067;SDS011;6600;51.362;6.686;2022-10-16T14:17:54;0.40;;;0.40;;
13067;SDS011;6600;51.362;6.686;2022-10-16T14:20:20;2.37;;;0.90;;
13067;SDS011;6600;51.362;6.686;2022-10-16T14:22:57;0.83;;;0.53;;
13067;SDS011;6600;51.362;6.686;2022-10-16T14:25:25;1.03;;;0.40;;
13067;SDS011;6600;51.362;6.686;2022-10-16T14:28:03;0.50;;;0.30;;
13067;SDS011;6600;51.362;6.686;2022-10-16T14:30:30;2.27;;;0.40;;
13067;SDS011;6600;51.362;6.686;2022-10-16T14:33:03;0.40;;;0.40;;
13067;SDS011;6600;51.362;6.686;2022-10-16T14:35:44;1.63;;;0.80;;
13067;SDS011;6600;51.362;6.686;2022-10-16T14:38:18;0.50;;;0.50;;
13067;SDS011;6600;51.362;6.686;2022-10-16T14:40:47;0.57;;;0.57;;
13067;SDS011;6600;51.362;6.686;2022-10-16T14:43:14;0.83;;;0.60;;
13067;SDS011;6600;51.362;6.686;2022-10-16T14:45:52;0.87;;;0.50;;
13067;SDS011;6600;51.362;6.686;2022-10-16T14:48:19;1.10;;;0.50;;
13067;SDS011;6600;51.362;6.686;2022-10-16T14:50:45;1.43;;;0.63;;
13067;SDS011;6600;51.362;6.686;2022-10-16T14:53:12;1.43;;;0.50;;
13067;SDS011;6600;51.362;6.686;2022-10-16T14:55:38;1.00;;;0.67;;
13067;SDS011;6600;51.362;6.686;2022-10-16T14:58:05;0.80;;;0.80;;
13067;SDS011;6600;51.362;6.686;2022-10-16T15:00:30;0.40;;;0.40;;
13067;SDS011;6600;51.362;6.686;2022-10-16T15:02:56;0.40;;;0.40;;
13067;SDS011;6600;51.362;6.686;2022-10-16T15:07:48;1.00;;;0.43;;
13067;SDS011;6600;51.362;6.686;2022-10-16T15:10:15;0.40;;;0.40;;
13067;SDS011;6600;51.362;6.686;2022-10-16T15:12:44;1.47;;;0.40;;
13067;SDS011;6600;51.362;6.686;2022-10-16T15:15:21;0.40;;;0.40;;
13067;SDS011;6600;51.362;6.686;2022-10-16T15:17:49;0.30;;;0.30;;
13067;SDS011;6600;51.362;6.686;2022-10-16T15:20:17;1.27;;;0.30;;
13067;SDS011;6600;51.362;6.686;2022-10-16T15:22:43;0.40;;;0.40;;
13067;SDS011;6600;51.362;6.686;2022-10-16T15:25:28;0.60;;;0.60;;
13067;SDS011;6600;51.362;6.686;2022-10-16T15:28:08;0.50;;;0.50;;
13067;SDS011;6600;51.362;6.686;2022-10-16T15:30:35;0.50;;;0.50;;
13067;SDS011;6600;51.362;6.686;2022-10-16T15:33:02;0.20;;;0.20;;
13067;SDS011;6600;51.362;6.686;2022-10-16T15:35:28;0.20;;;0.20;;
13067;SDS011;6600;51.362;6.686;2022-10-16T15:37:53;0.30;;;0.30;;
13067;SDS011;6600;51.362;6.686;2022-10-16T15:40:19;0.40;;;0.40;;
13067;SDS011;6600;51.362;6.686;2022-10-16T15:42:46;0.60;;;0.60;;
13067;SDS011;6600;51.362;6.686;2022-10-16T15:45:12;1.07;;;0.50;;
13067;SDS011;6600;51.362;6.686;2022-10-16T15:47:37;0.90;;;0.47;;
13067;SDS011;6600;51.362;6.686;2022-10-16T15:50:03;0.60;;;0.60;;
13067;SDS011;6600;51.362;6.686;2022-10-16T15:52:29;1.07;;;0.57;;
13067;SDS011;6600;51.362;6.686;2022-10-16T15:54:56;0.70;;;0.50;;
13067;SDS011;6600;51.362;6.686;2022-10-16T15:57:22;1.13;;;0.70;;
13067;SDS011;6600;51.362;6.686;2022-10-16T15:59:48;0.60;;;0.60;;
13067;SDS011;6600;51.362;6.686;2022-10-16T16:02:14;0.50;;;0.50;;
13067;SDS011;6600;51.362;6.686;2022-10-16T16:04:39;0.60;;;0.60;;
13067;SDS011;6600;51.362;6.686;2022-10-16T16:07:04;1.77;;;1.57;;
13067;SDS011;6600;51.362;6.686;2022-10-16T16:09:32;3.47;;;1.90;;
13067;SDS011;6600;51.362;6.686;2022-10-16T16:11:58;1.57;;;1.23;;
13067;SDS011;6600;51.362;6.686;2022-10-16T16:14:26;0.70;;;0.70;;
13067;SDS011;6600;51.362;6.686;2022-10-16T16:16:53;0.77;;;0.77;;
13067;SDS011;6600;51.362;6.686;2022-10-16T16:19:19;1.13;;;0.70;;
13067;SDS011;6600;51.362;6.686;2022-10-16T16:21:46;0.40;;;0.30;;
13067;SDS011;6600;51.362;6.686;2022-10-16T16:24:11;1.00;;;0.57;;
13067;SDS011;6600;51.362;6.686;2022-10-16T16:26:37;1.33;;;0.90;;
13067;SDS011;6600;51.362;6.686;2022-10-16T16:29:04;0.80;;;0.80;;
13067;SDS011;6600;51.362;6.686;2022-10-16T16:31:31;0.50;;;0.50;;
13067;SDS011;6600;51.362;6.686;2022-10-16T16:33:57;1.00;;;0.70;;
13067;SDS011;6600;51.362;6.686;2022-10-16T16:36:23;2.50;;;1.37;;
13067;SDS011;6600;51.362;6.686;2022-10-16T16:38:49;4.30;;;2.90;;
13067;SDS011;6600;51.362;6.686;2022-10-16T16:41:15;5.27;;;2.97;;
13067;SDS011;6600;51.362;6.686;2022-10-16T16:43:45;1.13;;;0.93;;
13067;SDS011;6600;51.362;6.686;2022-10-16T16:46:12;1.50;;;1.40;;
13067;SDS011;6600;51.362;6.686;2022-10-16T16:48:39;5.40;;;2.77;;
13067;SDS011;6600;51.362;6.686;2022-10-16T16:51:09;4.53;;;3.00;;
13067;SDS011;6600;51.362;6.686;2022-10-16T16:53:41;1.63;;;1.53;;
13067;SDS011;6600;51.362;6.686;2022-10-16T16:56:07;0.63;;;0.63;;
13067;SDS011;6600;51.362;6.686;2022-10-16T16:58:33;1.03;;;1.00;;
13067;SDS011;6600;51.362;6.686;2022-10-16T17:00:59;1.40;;;0.70;;
13067;SDS011;6600;51.362;6.686;2022-10-16T17:03:27;0.70;;;0.70;;
13067;SDS011;6600;51.362;6.686;2022-10-16T17:06:00;0.90;;;0.77;;
13067;SDS011;6600;51.362;6.686;2022-10-16T17:08:27;1.03;;;0.80;;
13067;SDS011;6600;51.362;6.686;2022-10-16T17:10:54;0.67;;;0.67;;
13067;SDS011;6600;51.362;6.686;2022-10-16T17:13:26;0.50;;;0.50;;